Terminal Aerodrome Forecast
Issued by NWS

Home | Current Version | Previous Version | Text Only | Print | Product List | Glossary On
Versions: 1 2 3 4 5 6 7 8 9 10 11 12 13 14 15 16 17 18 19 20 21 22 23 24 25
000
FTUS42 KMHX 050933 AAB
TAFPGV
TAF AMD
KPGV 050933Z 0510/0606 01005KT 4SM BR SCT015
     FM051400 04005KT P6SM SCT020 BKN035
     FM051800 04010KT P6SM VCTS SCT050CB
     FM060100 05005KT P6SM SCT040
      AMD LTD TO CLD VIS AND WIND=

USA.gov is the U.S. government's official web portal to all federal, state and local government web resources and services.